Time;durP1;ratioP1;P1;durP2;ratioP2;P2;SDS_P1;SDS_P2;PMS_P1;PMS_P2;Temp;Humidity;BMP_temperature;BMP_pressure;BME280_temperature;BME280_humidity;BME280_pressure;Samples;Min_cycle;Max_cycle;Signal;HPM_P1;HPM_P2
2023/10/14 00:02:42;;;;;;;4.85;3.13;;;22.90;57.90;;;;;;6244958;28;20050;-76
2023/10/14 00:05:43;;;;;;;7.22;2.80;;;23.00;57.90;;;;;;6249561;28;20041;-75
2023/10/14 00:08:54;;;;;;;4.60;2.65;;;23.00;57.90;;;;;;6269520;28;20049;-76
2023/10/14 00:11:56;;;;;;;6.82;2.90;;;23.00;58.00;;;;;;6270309;28;20490;-76
2023/10/14 00:15:04;;;;;;;4.07;2.58;;;23.00;58.10;;;;;;6270524;28;20045;-75
2023/10/14 00:18:05;;;;;;;5.28;3.00;;;23.10;58.20;;;;;;6271828;28;20048;-75
2023/10/14 00:21:11;;;;;;;8.20;3.08;;;23.10;58.30;;;;;;6249692;28;20045;-75
2023/10/14 00:24:25;;;;;;;3.83;2.72;;;23.10;58.50;;;;;;6249515;28;20088;-76
2023/10/14 00:27:27;;;;;;;3.70;2.60;;;23.10;58.50;;;;;;6249974;28;20087;-76
2023/10/14 00:30:31;;;;;;;4.55;3.60;;;23.10;58.70;;;;;;6249524;28;20049;-75
2023/10/14 00:33:35;;;;;;;7.80;3.60;;;23.10;58.80;;;;;;6249201;28;20053;-76
2023/10/14 00:36:37;;;;;;;2.85;2.55;;;23.10;59.20;;;;;;6248917;28;20445;-76
2023/10/14 00:39:38;;;;;;;3.97;2.42;;;23.10;59.40;;;;;;6249164;28;20052;-76
2023/10/14 00:42:41;;;;;;;6.45;2.90;;;23.00;59.50;;;;;;6249174;28;20517;-75
2023/10/14 00:45:44;;;;;;;5.90;3.33;;;23.00;59.90;;;;;;6246871;28;20533;-75
2023/10/14 00:48:47;;;;;;;6.28;3.15;;;23.00;60.20;;;;;;6248668;28;20044;-75
2023/10/14 00:51:52;;;;;;;4.47;2.78;;;23.00;60.40;;;;;;6247327;28;20122;-75
2023/10/14 00:55:12;;;;;;;6.72;3.03;;;23.00;60.80;;;;;;6248500;28;20045;-75
2023/10/14 00:58:20;;;;;;;4.97;3.67;;;23.00;61.00;;;;;;6263659;28;20084;-76
2023/10/14 01:01:27;;;;;;;3.78;3.20;;;22.90;61.20;;;;;;6273649;28;20128;-76
2023/10/14 01:04:32;;;;;;;4.93;3.20;;;22.90;61.60;;;;;;6273216;28;20182;-75
2023/10/14 01:07:34;;;;;;;5.18;3.80;;;22.80;61.80;;;;;;6254246;28;20759;-75
2023/10/14 01:10:36;;;;;;;6.40;3.30;;;22.80;62.40;;;;;;6248597;28;20046;-75
2023/10/14 01:13:38;;;;;;;5.88;2.80;;;22.80;62.70;;;;;;6248512;28;20041;-75
2023/10/14 01:16:41;;;;;;;8.00;3.75;;;22.80;63.10;;;;;;6247752;28;20042;-75
2023/10/14 01:19:43;;;;;;;7.38;2.92;;;22.70;63.60;;;;;;6248582;28;20057;-75
2023/10/14 01:22:50;;;;;;;4.68;3.67;;;22.70;63.70;;;;;;6248052;28;20056;-75
2023/10/14 01:25:52;;;;;;;6.17;3.23;;;22.70;64.00;;;;;;6247975;28;20049;-76
2023/10/14 01:28:59;;;;;;;6.15;3.42;;;22.70;64.10;;;;;;6247913;28;20056;-76
2023/10/14 01:32:25;;;;;;;9.95;3.97;;;22.70;64.50;;;;;;6248652;28;20049;-75
2023/10/14 01:35:31;;;;;;;11.38;4.13;;;22.70;65.00;;;;;;6238038;28;20046;-76
2023/10/14 01:38:34;;;;;;;6.82;3.30;;;22.60;64.90;;;;;;6247313;28;20095;-76
2023/10/14 01:41:36;;;;;;;5.00;3.72;;;22.60;65.20;;;;;;6247723;28;20481;-75
2023/10/14 01:44:38;;;;;;;5.88;4.03;;;22.60;65.30;;;;;;6247608;28;20045;-76
2023/10/14 01:47:47;;;;;;;6.78;4.45;;;22.50;65.60;;;;;;6267569;28;20053;-75
2023/10/14 01:50:54;;;;;;;5.40;3.22;;;22.50;66.00;;;;;;6272424;28;20099;-75
2023/10/14 01:53:57;;;;;;;10.07;3.40;;;22.50;66.20;;;;;;6272015;28;20083;-75
2023/10/14 01:56:59;;;;;;;4.05;3.17;;;22.50;66.50;;;;;;6272059;28;20048;-75
2023/10/14 02:00:12;;;;;;;4.70;3.20;;;22.40;66.70;;;;;;6272458;28;20045;-75
2023/10/14 02:03:15;;;;;;;7.32;4.38;;;22.40;66.90;;;;;;6272338;28;20072;-75
2023/10/14 02:06:26;;;;;;;8.48;3.60;;;22.40;67.10;;;;;;6271507;28;20061;-75
2023/10/14 02:09:30;;;;;;;8.80;3.78;;;22.40;67.50;;;;;;6271891;28;20506;-75
2023/10/14 02:12:34;;;;;;;6.43;4.20;;;22.30;67.80;;;;;;6266041;28;20131;-75
2023/10/14 02:15:37;;;;;;;4.82;3.58;;;22.30;68.00;;;;;;6272002;28;20430;-75
2023/10/14 02:18:39;;;;;;;9.35;3.33;;;22.30;68.50;;;;;;6251920;28;20049;-75
2023/10/14 02:21:43;;;;;;;4.75;3.58;;;22.30;68.70;;;;;;6246879;28;20045;-75
2023/10/14 02:24:48;;;;;;;8.63;3.33;;;22.30;69.00;;;;;;6246618;28;20526;-75
2023/10/14 02:27:53;;;;;;;5.28;3.88;;;22.30;69.50;;;;;;6246937;28;20053;-76
2023/10/14 02:30:59;;;;;;;5.03;3.40;;;22.20;69.50;;;;;;6246448;28;20048;-76
2023/10/14 02:34:05;;;;;;;5.03;3.67;;;22.20;69.80;;;;;;6246442;28;20042;-75
2023/10/14 02:37:07;;;;;;;6.25;3.83;;;22.20;70.00;;;;;;6246198;28;20049;-75
2023/10/14 02:40:16;;;;;;;6.00;4.47;;;22.10;70.20;;;;;;6260978;28;20052;-75
2023/10/14 02:43:18;;;;;;;9.40;4.70;;;22.10;70.60;;;;;;6271782;28;20139;-76
2023/10/14 02:46:20;;;;;;;5.03;3.72;;;22.10;70.70;;;;;;6237809;28;20041;-76
2023/10/14 02:49:24;;;;;;;12.55;4.70;;;22.10;71.00;;;;;;6246097;28;20042;-76
2023/10/14 02:52:30;;;;;;;4.65;3.58;;;22.10;71.30;;;;;;6270928;28;20045;-75
2023/10/14 02:58:50;;;;;;;5.70;3.35;;;22.00;71.60;;;;;;6269879;28;20057;-75
2023/10/14 03:01:52;;;;;;;7.65;5.18;;;22.00;71.70;;;;;;6270654;28;20063;-76
2023/10/14 03:05:09;;;;;;;7.55;4.63;;;22.00;71.90;;;;;;6270059;28;20077;-76
2023/10/14 03:08:12;;;;;;;9.13;4.65;;;22.00;72.10;;;;;;6270323;28;20053;-75
2023/10/14 03:11:18;;;;;;;5.28;3.53;;;22.00;72.30;;;;;;6270900;28;20087;-76
2023/10/14 03:14:19;;;;;;;15.52;4.15;;;21.90;72.50;;;;;;6270288;28;20525;-76
2023/10/14 03:17:38;;;;;;;7.70;3.35;;;21.90;72.60;;;;;;6269677;28;20524;-76
2023/10/14 03:20:44;;;;;;;11.90;5.93;;;21.90;73.20;;;;;;6270347;28;20041;-75
2023/10/14 03:23:46;;;;;;;7.95;2.40;;;21.80;74.80;;;;;;6270256;28;20049;-74
2023/10/14 03:26:57;;;;;;;9.70;3.88;;;20.20;75.90;;;;;;6269894;28;20506;-74
2023/10/14 03:29:59;;;;;;;5.95;3.50;;;18.70;80.80;;;;;;6270032;28;20080;-74
2023/10/14 03:33:01;;;;;;;6.10;3.05;;;17.70;85.10;;;;;;6270055;28;20069;-74
2023/10/14 03:36:03;;;;;;;5.68;3.35;;;17.10;89.00;;;;;;6269641;28;20074;-73
2023/10/14 03:39:21;;;;;;;3.22;2.67;;;16.80;91.40;;;;;;6270503;28;20052;-74
2023/10/14 03:42:32;;;;;;;6.67;2.50;;;16.60;93.40;;;;;;6269828;28;20060;-74
2023/10/14 03:45:45;;;;;;;7.05;3.10;;;16.40;96.20;;;;;;6269946;28;20525;-74
2023/10/14 03:48:47;;;;;;;8.38;4.25;;;16.30;98.80;;;;;;6257736;28;20502;-73
2023/10/14 03:51:52;;;;;;;6.22;3.25;;;16.30;99.90;;;;;;6249955;28;20088;-74
2023/10/14 03:54:53;;;;;;;6.68;2.42;;;16.20;99.90;;;;;;6254621;28;20045;-74
2023/10/14 03:58:03;;;;;;;4.20;2.58;;;16.20;99.90;;;;;;6261397;28;20049;-73
2023/10/14 04:01:05;;;;;;;3.47;2.67;;;16.20;99.90;;;;;;6250194;28;20042;-74
2023/10/14 04:04:17;;;;;;;6.00;2.17;;;16.10;99.90;;;;;;6249932;28;20049;-74
2023/10/14 04:07:28;;;;;;;8.90;2.88;;;16.10;99.90;;;;;;6250068;28;20521;-75
2023/10/14 04:10:34;;;;;;;4.88;3.53;;;16.10;99.90;;;;;;6250128;28;20146;-74
2023/10/14 04:13:40;;;;;;;5.78;2.97;;;16.10;99.90;;;;;;6249779;28;20099;-74
2023/10/14 04:17:00;;;;;;;6.70;2.70;;;16.20;99.90;;;;;;6249401;28;20256;-74
2023/10/14 04:20:20;;;;;;;4.40;2.65;;;16.20;99.90;;;;;;6250838;28;20076;-75
2023/10/14 04:23:28;;;;;;;9.02;3.03;;;16.30;99.90;;;;;;6250103;28;20061;-75
2023/10/14 04:26:34;;;;;;;;;;;16.30;99.90;;;;;;6249825;28;20053;-74
2023/10/14 04:29:39;;;;;;;4.43;2.63;;;16.30;99.90;;;;;;6249496;28;20356;-74
2023/10/14 04:32:47;;;;;;;5.57;2.40;;;16.40;99.90;;;;;;6249192;28;20042;-74
2023/10/14 04:36:08;;;;;;;3.53;2.83;;;16.40;99.90;;;;;;6249678;28;20072;-74
2023/10/14 04:39:25;;;;;;;6.78;2.63;;;16.50;99.90;;;;;;6249651;28;20163;-74
2023/10/14 04:42:36;;;;;;;5.10;3.75;;;16.60;99.90;;;;;;6249153;28;20072;-74
2023/10/14 04:45:45;;;;;;;4.55;3.00;;;16.70;99.90;;;;;;6248973;28;20307;-75
2023/10/14 04:48:51;;;;;;;7.28;3.53;;;16.70;99.90;;;;;;6248770;28;20041;-74
2023/10/14 04:51:58;;;;;;;6.07;1.95;;;16.70;99.90;;;;;;6249115;28;20072;-75
2023/10/14 04:55:08;;;;;;;3.65;2.60;;;16.70;99.90;;;;;;6248641;28;20123;-74
2023/10/14 04:58:14;;;;;;;6.53;2.78;;;16.70;99.90;;;;;;6271141;28;20175;-74
2023/10/14 05:01:18;;;;;;;10.48;2.90;;;16.70;99.90;;;;;;6272911;28;20068;-74
2023/10/14 05:04:21;;;;;;;6.38;3.35;;;16.70;99.90;;;;;;6273116;28;20088;-75
2023/10/14 05:07:28;;;;;;;6.97;2.95;;;16.80;99.90;;;;;;6273615;28;20053;-75
2023/10/14 05:10:30;;;;;;;5.80;2.97;;;16.80;99.90;;;;;;6273005;28;20505;-75
2023/10/14 05:13:32;;;;;;;7.57;3.10;;;16.80;99.90;;;;;;6273189;28;20044;-76
2023/10/14 05:16:53;;;;;;;5.88;2.22;;;16.80;99.90;;;;;;6272685;28;20052;-75
2023/10/14 05:20:01;;;;;;;2.55;1.95;;;16.90;99.90;;;;;;6273526;28;20071;-75
2023/10/14 05:23:05;;;;;;;5.15;2.60;;;17.00;99.90;;;;;;6251812;28;20056;-74
2023/10/14 05:26:07;;;;;;;4.38;2.08;;;17.10;99.90;;;;;;6248239;28;20041;-75
2023/10/14 05:29:16;;;;;;;5.03;2.00;;;17.20;99.90;;;;;;6247759;28;20125;-75
2023/10/14 05:32:23;;;;;;;4.75;1.88;;;17.30;99.90;;;;;;6248155;28;20072;-75
2023/10/14 05:35:25;;;;;;;3.78;3.22;;;17.30;99.90;;;;;;6256754;28;20548;-74
2023/10/14 05:38:27;;;;;;;5.70;1.75;;;17.40;99.90;;;;;;6247917;28;20042;-74
2023/10/14 05:41:29;;;;;;;3.35;1.58;;;17.40;99.90;;;;;;6239230;28;20414;-74
2023/10/14 05:44:31;;;;;;;1.45;1.00;;;17.40;99.90;;;;;;6247900;28;20053;-74
2023/10/14 05:47:34;;;;;;;2.13;1.38;;;17.40;99.90;;;;;;6247299;28;20049;-74
2023/10/14 05:50:36;;;;;;;5.85;1.58;;;17.40;99.90;;;;;;6247555;28;20041;-75
2023/10/14 05:53:38;;;;;;;4.55;2.80;;;17.40;99.90;;;;;;6247528;28;20045;-74
2023/10/14 05:56:42;;;;;;;5.85;1.05;;;17.50;99.90;;;;;;6247319;28;20042;-74
2023/10/14 05:59:44;;;;;;;2.13;1.45;;;17.50;99.90;;;;;;6247778;28;20042;-74
2023/10/14 06:02:48;;;;;;;2.17;1.17;;;17.50;99.90;;;;;;6249329;28;20049;-74
2023/10/14 06:05:49;;;;;;;4.63;1.58;;;17.50;99.90;;;;;;6271706;28;20045;-74
2023/10/14 06:08:53;;;;;;;2.63;1.17;;;17.60;99.90;;;;;;6271633;28;20052;-74
2023/10/14 06:11:54;;;;;;;1.10;1.00;;;17.60;99.90;;;;;;6272113;28;20128;-74
2023/10/14 06:14:56;;;;;;;2.42;1.35;;;17.60;99.90;;;;;;6270887;28;20049;-74
2023/10/14 06:17:59;;;;;;;3.60;1.33;;;17.70;99.90;;;;;;6271267;28;20052;-74
2023/10/14 06:21:01;;;;;;;4.35;0.95;;;17.70;99.90;;;;;;6271429;28;20095;-75
2023/10/14 06:24:04;;;;;;;1.95;1.15;;;17.80;99.90;;;;;;6251666;28;20056;-73
2023/10/14 06:27:08;;;;;;;6.53;1.40;;;17.90;99.90;;;;;;6246537;28;20037;-75
2023/10/14 06:30:18;;;;;;;4.20;1.83;;;17.90;99.90;;;;;;6246542;28;20045;-74
2023/10/14 06:33:26;;;;;;;2.40;1.10;;;18.00;99.90;;;;;;6246392;28;20124;-74
2023/10/14 06:36:28;;;;;;;3.08;1.05;;;18.00;99.90;;;;;;6219735;28;20045;-74
2023/10/14 06:39:38;;;;;;;3.15;1.20;;;18.00;99.90;;;;;;6243965;28;20045;-74
2023/10/14 06:42:43;;;;;;;2.65;0.70;;;18.10;99.90;;;;;;6240841;28;20502;-74
2023/10/14 06:45:46;;;;;;;5.03;1.05;;;18.10;99.90;;;;;;6247670;28;20506;-74
2023/10/14 06:48:52;;;;;;;4.65;1.10;;;18.20;99.90;;;;;;6246302;28;20053;-74
2023/10/14 06:51:54;;;;;;;1.35;0.68;;;18.20;99.90;;;;;;6241997;28;20041;-74
2023/10/14 06:54:56;;;;;;;3.08;0.38;;;18.20;99.90;;;;;;6256540;28;20479;-75
2023/10/14 06:57:57;;;;;;;2.80;0.80;;;18.20;99.90;;;;;;6249251;28;20499;-75
2023/10/14 07:00:59;;;;;;;1.92;0.93;;;18.20;99.90;;;;;;6264524;28;20041;-74
2023/10/14 07:04:04;;;;;;;2.97;0.50;;;18.30;99.90;;;;;;6263276;28;20052;-75
2023/10/14 07:07:08;;;;;;;0.65;0.40;;;18.30;99.90;;;;;;6245422;28;20049;-75
2023/10/14 07:10:11;;;;;;;1.52;0.88;;;18.30;99.90;;;;;;6246195;28;20072;-75
2023/10/14 07:13:13;;;;;;;1.52;0.57;;;18.30;99.90;;;;;;6244081;28;20063;-74
2023/10/14 07:16:15;;;;;;;1.35;0.93;;;18.30;99.90;;;;;;6245319;28;20038;-74
2023/10/14 07:19:18;;;;;;;2.20;0.63;;;18.30;99.90;;;;;;6245968;28;20052;-75
2023/10/14 07:22:21;;;;;;;1.95;0.55;;;18.20;99.90;;;;;;6245903;28;20045;-74
2023/10/14 07:25:24;;;;;;;0.50;0.40;;;18.20;99.90;;;;;;6245504;28;20048;-74
2023/10/14 07:28:26;;;;;;;5.53;0.73;;;18.20;99.90;;;;;;6245705;28;20041;-75
2023/10/14 07:31:30;;;;;;;3.60;0.70;;;18.10;99.90;;;;;;6246218;28;20055;-75
2023/10/14 07:34:33;;;;;;;3.00;0.80;;;18.00;99.90;;;;;;6245441;28;20546;-75
2023/10/14 07:37:35;;;;;;;1.40;0.70;;;17.90;99.90;;;;;;6270273;28;20040;-74
2023/10/14 07:40:37;;;;;;;1.30;0.90;;;17.70;99.90;;;;;;6261826;28;20053;-75
2023/10/14 07:43:40;;;;;;;3.00;0.88;;;17.60;99.90;;;;;;6245786;28;20418;-74
2023/10/14 07:46:42;;;;;;;2.03;0.60;;;17.40;99.90;;;;;;6262750;28;20375;-74
2023/10/14 07:49:45;;;;;;;2.42;1.00;;;17.30;99.90;;;;;;6250831;28;20041;-73
2023/10/14 07:52:46;;;;;;;5.63;0.90;;;17.10;99.90;;;;;;6244830;28;20048;-73
2023/10/14 07:55:49;;;;;;;0.80;0.80;;;17.00;99.90;;;;;;6245329;28;20054;-73
2023/10/14 07:58:52;;;;;;;4.40;0.80;;;16.80;99.90;;;;;;6243814;28;20049;-73
2023/10/14 08:01:54;;;;;;;0.60;0.52;;;16.60;99.90;;;;;;6245021;28;20056;-73
2023/10/14 08:04:57;;;;;;;1.73;0.65;;;16.50;99.90;;;;;;6244160;28;20163;-73
2023/10/14 08:08:05;;;;;;;1.45;0.90;;;16.40;99.90;;;;;;6245147;28;20674;-73
2023/10/14 08:11:07;;;;;;;;;;;16.30;99.90;;;;;;6244922;28;20103;-73
2023/10/14 08:14:09;;;;;;;4.43;0.85;;;16.20;99.90;;;;;;6244600;28;20282;-73
2023/10/14 08:17:12;;;;;;;0.75;0.60;;;16.20;99.90;;;;;;6244075;28;20041;-73
2023/10/14 08:20:18;;;;;;;2.75;1.05;;;16.10;99.90;;;;;;6244718;28;20129;-73
2023/10/14 08:23:20;;;;;;;2.28;0.50;;;16.10;99.90;;;;;;6245348;28;20077;-73
2023/10/14 08:26:26;;;;;;;0.65;0.65;;;16.10;99.90;;;;;;6244105;28;20048;-73
2023/10/14 08:29:32;;;;;;;1.30;0.85;;;16.10;99.90;;;;;;6244751;28;20041;-73
2023/10/14 08:32:37;;;;;;;1.15;0.60;;;16.10;99.90;;;;;;6244552;28;20045;-73
2023/10/14 08:35:42;;;;;;;2.47;0.68;;;16.10;99.90;;;;;;6237593;28;20076;-73
2023/10/14 08:38:44;;;;;;;0.50;0.50;;;16.10;99.90;;;;;;6249052;28;20578;-73
2023/10/14 08:41:48;;;;;;;1.63;0.47;;;16.10;99.90;;;;;;6248254;28;20128;-73
2023/10/14 08:44:52;;;;;;;0.88;0.60;;;16.10;99.90;;;;;;6248840;28;20116;-73
2023/10/14 08:47:55;;;;;;;1.92;1.23;;;16.10;99.90;;;;;;6248988;28;20613;-73
2023/10/14 08:50:58;;;;;;;1.48;0.60;;;16.10;99.90;;;;;;6248329;28;20534;-73
2023/10/14 08:54:06;;;;;;;2.35;0.63;;;16.20;99.90;;;;;;6251707;28;20908;-73
2023/10/14 08:57:09;;;;;;;1.67;0.55;;;16.20;99.90;;;;;;6260308;28;20499;-73
2023/10/14 09:00:12;;;;;;;1.60;1.00;;;16.20;99.90;;;;;;6248692;28;20430;-73
2023/10/14 09:03:14;;;;;;;0.77;0.65;;;16.20;99.90;;;;;;6248942;28;20146;-72
2023/10/14 09:06:18;;;;;;;1.20;0.70;;;16.30;99.90;;;;;;6248235;28;20033;-72
2023/10/14 09:09:23;;;;;;;1.25;0.85;;;16.40;99.90;;;;;;6248339;28;20052;-72
2023/10/14 09:12:25;;;;;;;0.50;0.50;;;16.40;99.90;;;;;;6248704;28;20037;-72
2023/10/14 09:15:28;;;;;;;2.75;0.65;;;16.50;99.90;;;;;;6249159;28;20135;-72
2023/10/14 09:18:32;;;;;;;1.25;0.57;;;16.50;99.90;;;;;;6248216;28;20421;-72
2023/10/14 09:21:43;;;;;;;0.77;0.68;;;16.50;99.90;;;;;;6272600;28;20079;-73
2023/10/14 09:24:46;;;;;;;0.52;0.50;;;16.50;99.90;;;;;;6266648;28;20647;-72
2023/10/14 09:27:48;;;;;;;0.47;0.47;;;16.40;99.90;;;;;;6273753;28;20053;-72
2023/10/14 09:30:51;;;;;;;1.35;0.65;;;16.40;99.90;;;;;;6257121;28;20049;-72
2023/10/14 09:33:53;;;;;;;0.63;0.50;;;16.40;99.90;;;;;;6251659;28;20052;-74
2023/10/14 09:36:56;;;;;;;0.75;0.70;;;16.40;99.90;;;;;;6272633;28;20048;-75
2023/10/14 09:40:06;;;;;;;1.17;0.68;;;16.30;99.90;;;;;;6266513;28;20045;-75
2023/10/14 09:43:08;;;;;;;1.15;0.75;;;16.30;99.90;;;;;;6246110;28;20045;-74
2023/10/14 09:46:12;;;;;;;0.90;0.77;;;16.40;99.90;;;;;;6247192;28;20048;-74
2023/10/14 09:49:16;;;;;;;0.90;0.75;;;16.40;99.90;;;;;;6245356;28;20046;-75
2023/10/14 09:52:21;;;;;;;0.50;0.50;;;16.30;99.90;;;;;;6247872;28;20562;-73
2023/10/14 09:55:25;;;;;;;1.67;0.82;;;16.20;99.90;;;;;;6270315;28;20516;-74
2023/10/14 09:58:30;;;;;;;1.45;0.80;;;16.20;99.90;;;;;;6272299;28;20426;-74
2023/10/14 10:01:32;;;;;;;0.73;0.70;;;16.10;99.90;;;;;;6257578;28;20064;-74
2023/10/14 10:04:37;;;;;;;1.42;1.25;;;16.00;99.90;;;;;;6252918;28;20087;-74
2023/10/14 10:07:53;;;;;;;1.77;0.75;;;16.00;99.90;;;;;;6251179;28;20057;-74
2023/10/14 10:10:56;;;;;;;1.52;0.90;;;16.00;99.90;;;;;;6240676;28;20052;-73
2023/10/14 10:14:00;;;;;;;3.45;0.93;;;15.90;99.90;;;;;;6247452;28;20080;-74
2023/10/14 10:17:08;;;;;;;1.10;0.70;;;15.90;99.90;;;;;;6246541;28;20056;-73
2023/10/14 10:20:12;;;;;;;1.38;0.95;;;15.90;99.90;;;;;;6266446;28;20056;-73
2023/10/14 10:23:15;;;;;;;4.57;1.55;;;15.90;99.90;;;;;;6255414;28;20049;-73
2023/10/14 10:26:18;;;;;;;1.13;0.80;;;15.90;99.90;;;;;;6246838;28;20044;-74
2023/10/14 10:29:22;;;;;;;5.50;2.38;;;15.90;99.90;;;;;;6246835;28;20045;-74
2023/10/14 10:32:30;;;;;;;1.08;0.98;;;15.90;99.90;;;;;;6260599;28;20052;-74
2023/10/14 10:35:33;;;;;;;1.30;0.88;;;15.90;99.90;;;;;;6259937;28;20100;-73
2023/10/14 10:38:38;;;;;;;3.67;1.17;;;15.80;99.90;;;;;;6269714;28;20052;-73
2023/10/14 10:41:39;;;;;;;4.55;3.00;;;15.80;99.90;;;;;;6254317;28;20447;-74
2023/10/14 10:44:43;;;;;;;7.10;1.75;;;15.70;99.90;;;;;;6243437;28;20415;-73
2023/10/14 10:47:45;;;;;;;1.20;0.95;;;15.70;99.90;;;;;;6249278;28;20520;-74
2023/10/14 10:50:51;;;;;;;0.65;0.65;;;15.60;99.90;;;;;;6246315;28;20044;-73
2023/10/14 10:53:56;;;;;;;1.83;1.33;;;15.60;99.90;;;;;;6246023;28;20100;-74
2023/10/14 10:57:00;;;;;;;3.20;0.90;;;15.60;99.90;;;;;;6246165;28;20052;-73
2023/10/14 11:00:09;;;;;;;3.15;2.15;;;15.60;99.90;;;;;;6246172;28;20059;-73
2023/10/14 11:03:14;;;;;;;1.30;1.20;;;15.60;99.90;;;;;;6246737;28;20049;-73
2023/10/14 11:06:17;;;;;;;1.17;1.02;;;15.70;99.90;;;;;;6244988;28;20042;-73
2023/10/14 11:09:20;;;;;;;1.65;1.55;;;15.70;99.90;;;;;;6244998;28;20116;-73
2023/10/14 11:12:22;;;;;;;9.15;6.97;;;15.70;99.90;;;;;;6245391;28;20049;-73
2023/10/14 11:15:25;;;;;;;9.82;8.82;;;15.80;99.90;;;;;;6246297;28;20089;-74
2023/10/14 11:18:30;;;;;;;2.97;2.70;;;15.90;99.90;;;;;;6260859;28;20041;-75
2023/10/14 11:21:32;;;;;;;5.65;4.63;;;15.90;99.90;;;;;;6270711;28;20041;-74
2023/10/14 11:24:36;;;;;;;4.07;3.15;;;16.00;99.90;;;;;;6273196;28;20052;-73
2023/10/14 11:27:38;;;;;;;3.05;2.40;;;16.00;99.90;;;;;;6286451;23;20041;-77
2023/10/14 11:30:45;;;;;;;2.33;1.77;;;16.10;99.90;;;;;;6260326;28;20136;-77
2023/10/14 11:33:47;;;;;;;1.65;1.05;;;16.20;99.90;;;;;;6264662;28;20069;-78
2023/10/14 11:36:49;;;;;;;1.42;1.20;;;16.30;99.90;;;;;;6250477;28;20128;-78
2023/10/14 11:39:53;;;;;;;1.45;1.33;;;16.40;99.90;;;;;;6253508;28;20053;-77
2023/10/14 11:42:55;;;;;;;2.20;1.23;;;16.30;99.90;;;;;;6242065;28;20265;-79
2023/10/14 11:45:58;;;;;;;1.52;1.10;;;16.20;99.90;;;;;;6246889;28;20050;-79
2023/10/14 11:49:00;;;;;;;1.40;1.08;;;16.00;99.90;;;;;;6249790;28;20050;-78
2023/10/14 11:52:04;;;;;;;1.52;1.40;;;15.90;99.90;;;;;;6255821;28;20137;-81
2023/10/14 11:55:11;;;;;;;1.52;1.20;;;15.90;99.90;;;;;;6258133;28;20398;-78
2023/10/14 11:58:13;;;;;;;1.50;1.40;;;15.80;99.90;;;;;;6256253;28;20057;-80
2023/10/14 12:01:15;;;;;;;6.32;1.48;;;15.70;99.90;;;;;;6245228;28;20131;-80
2023/10/14 12:04:16;;;;;;;2.40;1.95;;;15.60;99.90;;;;;;6253299;28;20050;-79
2023/10/14 12:07:21;;;;;;;2.38;1.73;;;15.60;99.90;;;;;;6252394;28;20037;-80
2023/10/14 12:10:26;;;;;;;65.90;29.15;;;15.70;99.90;;;;;;6251592;28;20052;-80
2023/10/14 12:13:28;;;;;;;21.92;12.13;;;15.70;99.90;;;;;;6262553;28;20065;-81
2023/10/14 12:16:31;;;;;;;8.02;4.30;;;15.80;99.90;;;;;;6256779;28;20045;-77
2023/10/14 12:19:33;;;;;;;17.70;8.75;;;15.80;99.90;;;;;;6255585;28;20053;-81
2023/10/14 12:22:34;;;;;;;7.15;3.00;;;16.00;99.90;;;;;;6255551;28;20045;-79
2023/10/14 12:25:37;;;;;;;7.70;4.20;;;16.10;99.90;;;;;;6252765;28;20055;-81
2023/10/14 12:28:39;;;;;;;2.00;1.73;;;16.20;99.90;;;;;;6257633;28;20047;-79
2023/10/14 12:31:44;;;;;;;2.97;2.13;;;16.20;99.90;;;;;;6253245;28;20053;-81
2023/10/14 12:34:47;;;;;;;3.35;1.80;;;16.20;99.90;;;;;;6252808;28;20061;-79
2023/10/14 12:37:49;;;;;;;8.50;4.97;;;16.20;99.90;;;;;;6256501;28;20418;-80
2023/10/14 12:40:52;;;;;;;2.90;2.35;;;16.20;99.90;;;;;;6252470;28;20071;-79
2023/10/14 12:44:00;;;;;;;2.60;1.60;;;16.10;99.90;;;;;;6233357;28;20057;-77
2023/10/14 12:47:10;;;;;;;4.40;3.22;;;16.10;99.90;;;;;;6249810;28;20048;-78
2023/10/14 12:50:13;;;;;;;2.55;1.48;;;15.90;99.90;;;;;;6250131;28;20518;-78
2023/10/14 12:53:15;;;;;;;1.77;1.48;;;15.80;99.90;;;;;;6250370;28;20046;-77
2023/10/14 12:56:20;;;;;;;3.55;1.52;;;15.70;99.90;;;;;;6247009;28;20499;-80
2023/10/14 12:59:24;;;;;;;5.57;1.77;;;15.80;99.90;;;;;;6258790;28;20046;-78
2023/10/14 13:02:26;;;;;;;5.47;1.85;;;15.90;99.90;;;;;;6251117;28;20111;-79
2023/10/14 13:05:29;;;;;;;3.60;1.58;;;16.10;99.90;;;;;;6244055;28;20053;-79
2023/10/14 13:08:30;;;;;;;1.25;1.15;;;16.30;99.90;;;;;;6256808;28;20487;-80
2023/10/14 13:11:34;;;;;;;1.63;1.20;;;16.50;99.90;;;;;;6254432;28;20099;-79
2023/10/14 13:14:37;;;;;;;5.60;1.42;;;16.90;99.90;;;;;;6256891;28;20053;-80
2023/10/14 13:17:39;;;;;;;3.42;1.30;;;17.20;99.90;;;;;;6253134;28;20045;-79
2023/10/14 13:20:43;;;;;;;1.40;1.02;;;17.40;99.90;;;;;;6254945;28;20041;-77
2023/10/14 13:23:47;;;;;;;2.38;1.20;;;17.60;99.90;;;;;;6256251;28;20125;-79
2023/10/14 13:26:50;;;;;;;1.98;1.00;;;17.50;99.90;;;;;;6253783;28;20057;-79
2023/10/14 13:29:52;;;;;;;6.25;1.52;;;17.30;99.90;;;;;;6255281;28;20041;-78
2023/10/14 13:32:54;;;;;;;4.07;1.55;;;17.20;99.90;;;;;;6251292;28;20054;-78
2023/10/14 13:35:56;;;;;;;5.10;1.58;;;17.10;99.90;;;;;;6255830;28;20132;-80
2023/10/14 13:38:58;;;;;;;10.25;2.50;;;17.00;99.90;;;;;;6249860;28;20045;-80
2023/10/14 13:42:01;;;;;;;2.70;1.73;;;16.90;99.90;;;;;;6251985;28;20103;-79
2023/10/14 13:45:04;;;;;;;10.88;2.00;;;16.90;99.90;;;;;;6250188;28;20057;-79
2023/10/14 13:48:07;;;;;;;3.35;1.73;;;16.90;99.90;;;;;;6249766;28;20485;-78
2023/10/14 13:51:09;;;;;;;2.85;1.20;;;16.90;99.90;;;;;;6253172;28;20057;-80
2023/10/14 13:54:10;;;;;;;8.88;1.50;;;17.00;99.90;;;;;;6244860;28;20037;-80
2023/10/14 13:57:17;;;;;;;2.35;0.95;;;17.50;99.90;;;;;;6246256;28;20046;-80
2023/10/14 14:00:35;;;;;;;3.33;1.30;;;17.80;99.90;;;;;;6249838;28;20049;-79
2023/10/14 14:03:39;;;;;;;2.78;1.42;;;18.00;99.90;;;;;;6249823;28;20053;-80
2023/10/14 14:06:42;;;;;;;6.35;1.60;;;18.20;99.90;;;;;;6252118;28;20051;-79
2023/10/14 14:09:45;;;;;;;7.22;2.95;;;18.30;99.90;;;;;;6249618;28;20408;-79
2023/10/14 14:12:49;;;;;;;2.90;1.58;;;18.40;99.90;;;;;;6250197;28;20073;-79
2023/10/14 14:15:51;;;;;;;2.05;1.27;;;18.60;99.90;;;;;;6253082;28;20055;-79
2023/10/14 14:18:53;;;;;;;15.63;7.40;;;18.50;99.90;;;;;;6250771;28;20125;-79
2023/10/14 14:21:54;;;;;;;12.93;8.88;;;18.10;99.90;;;;;;6252841;28;20060;-79
2023/10/14 14:24:56;;;;;;;12.80;6.40;;;17.70;99.90;;;;;;6250581;28;20045;-79
2023/10/14 14:28:01;;;;;;;7.18;5.72;;;17.50;99.90;;;;;;6242088;28;20050;-79
2023/10/14 14:31:03;;;;;;;7.25;4.10;;;17.30;99.90;;;;;;6252751;28;20045;-79
2023/10/14 14:34:05;;;;;;;4.40;1.63;;;17.30;99.90;;;;;;6247868;28;20129;-78
2023/10/14 14:37:08;;;;;;;4.60;2.00;;;17.30;99.90;;;;;;6245402;28;20079;-79
2023/10/14 14:40:16;;;;;;;3.95;2.60;;;17.20;99.90;;;;;;6247302;28;20179;-79
2023/10/14 14:43:19;;;;;;;3.85;1.33;;;17.10;99.90;;;;;;6250697;28;20108;-79
2023/10/14 14:46:21;;;;;;;3.65;1.75;;;17.20;99.90;;;;;;6252166;28;20045;-78
2023/10/14 14:49:23;;;;;;;2.17;1.25;;;17.40;99.90;;;;;;6250500;28;20047;-79
2023/10/14 14:52:26;;;;;;;3.53;1.30;;;17.70;99.90;;;;;;6252197;28;20072;-80
2023/10/14 14:55:30;;;;;;;3.83;1.52;;;18.00;99.90;;;;;;6251140;28;20099;-79
2023/10/14 14:58:33;;;;;;;3.72;1.83;;;18.10;97.80;;;;;;6246652;28;20049;-79
2023/10/14 15:01:40;;;;;;;1.25;1.10;;;18.10;97.10;;;;;;6257283;28;20033;-79
2023/10/14 15:04:43;;;;;;;1.80;1.20;;;18.10;96.80;;;;;;6265956;28;20072;-79
2023/10/14 15:07:48;;;;;;;2.28;1.23;;;17.90;96.20;;;;;;6250979;28;20383;-79
2023/10/14 15:10:54;;;;;;;3.13;1.15;;;17.70;95.80;;;;;;6243273;28;20136;-79
2023/10/14 15:13:57;;;;;;;4.65;2.42;;;17.40;95.50;;;;;;6244866;28;20446;-77
2023/10/14 15:16:59;;;;;;;4.25;1.95;;;17.20;95.20;;;;;;6254070;28;20041;-79
2023/10/14 15:20:00;;;;;;;4.72;3.75;;;16.90;95.20;;;;;;6231221;28;20060;-79
2023/10/14 15:23:02;;;;;;;1.83;1.45;;;16.60;95.60;;;;;;6253216;28;20524;-81
2023/10/14 15:26:07;;;;;;;3.47;2.13;;;16.40;95.70;;;;;;6244702;28;20045;-80
2023/10/14 15:29:12;;;;;;;2.10;1.40;;;16.30;95.70;;;;;;6244771;28;20065;-79
2023/10/14 15:32:14;;;;;;;0.80;0.77;;;16.20;95.70;;;;;;6254660;28;20049;-80
2023/10/14 15:35:20;;;;;;;1.42;1.10;;;16.10;95.50;;;;;;6246710;28;20081;-80
2023/10/14 15:38:22;;;;;;;2.25;1.90;;;16.00;95.60;;;;;;6250776;28;20084;-79
2023/10/14 15:41:25;;;;;;;2.20;1.27;;;15.90;95.70;;;;;;6226253;28;20495;-79
2023/10/14 15:44:29;;;;;;;4.22;1.67;;;15.70;95.90;;;;;;6228654;28;20061;-76
2023/10/14 15:47:32;;;;;;;3.25;1.70;;;15.60;96.00;;;;;;6251934;28;20502;-78
2023/10/14 15:50:38;;;;;;;2.90;1.83;;;15.50;95.90;;;;;;6245460;28;20064;-80
2023/10/14 15:53:40;;;;;;;3.03;1.38;;;15.40;96.10;;;;;;6250702;28;20477;-79
2023/10/14 15:56:42;;;;;;;4.88;1.40;;;15.20;96.20;;;;;;6243959;28;20096;-79
2023/10/14 15:59:45;;;;;;;2.53;1.60;;;15.10;96.50;;;;;;6254860;28;20042;-77
2023/10/14 16:02:47;;;;;;;5.55;1.77;;;15.00;96.40;;;;;;6254493;28;20080;-79
2023/10/14 16:05:51;;;;;;;2.88;1.63;;;14.90;96.90;;;;;;6247452;28;20042;-79